Laprairie — VC9004 — position and weather

sailwx.info

Track history (hours):
 
Tides and Currents Weather Stations Pressure Air Temp Water Temp Dewpoint Dewpoint Depression Visibility Wind Speed Wind Dir Waves Ship Positions

Laprairie

Last reported at 2014-Dec-18 23:33 UTC. Time now 2014-Dec-19 00:35 UTC.
Position N 45°29' W 073°31'.

Length 22 m; draft 10 m.

Type: Tug. MMSI: 316005239.

Date/timePositionNaut miles runAvg speedWind from/ knotsBaromVisibWave heightAir tempDewpointWater temp
2014-Dec-18 23:33N 45°29' W 073°31'0 0.0
2014-Dec-18 22:33N 45°29' W 073°31'0 0.0
2014-Dec-18 21:33N 45°29' W 073°31'0 0.0
2014-Dec-18 20:33N 45°29' W 073°31'0 0.0
2014-Dec-18 19:33N 45°29' W 073°31'0 0.0
2014-Dec-18 18:33N 45°29' W 073°31'0 0.0
2014-Dec-18 17:33N 45°29' W 073°31'0 0.0
2014-Dec-18 16:33N 45°29' W 073°31'0 0.0
2014-Dec-18 15:33N 45°29' W 073°31'0 0.0
2014-Dec-18 14:33N 45°29' W 073°31'0 0.0
2014-Dec-18 13:33N 45°29' W 073°31'0 0.0
2014-Dec-18 12:34N 45°29' W 073°31'0 0.0
2014-Dec-18 11:33N 45°29' W 073°31'0 0.0
2014-Dec-18 10:33N 45°29' W 073°31'0 0.0
2014-Dec-18 09:33N 45°29' W 073°31'0 0.0
2014-Dec-18 08:33N 45°29' W 073°31'0 0.0
2014-Dec-18 07:33N 45°29' W 073°31'0 0.0
2014-Dec-18 06:33N 45°29' W 073°31'0 0.0
2014-Dec-18 05:34N 45°29' W 073°31'0 0.0
2014-Dec-18 04:33N 45°29' W 073°31'0 0.0
2014-Dec-18 03:33N 45°29' W 073°31'0 0.0
2014-Dec-18 02:33N 45°29' W 073°31'0 0.0
2014-Dec-18 01:34N 45°29' W 073°31'0 0.0
2014-Dec-18 00:34N 45°29' W 073°31'0 0.0
2014-Dec-17 23:34N 45°29' W 073°31'0 0.0
2014-Dec-17 22:33N 45°29' W 073°31'0 0.0
2014-Dec-17 21:34N 45°29' W 073°31'0 0.0
2014-Dec-17 20:34N 45°29' W 073°31'0 0.0
2014-Dec-17 19:34N 45°29' W 073°31'0 0.1
2014-Dec-17 18:33N 45°29' W 073°31'5 5.3
2014-Dec-17 17:33N 45°24' W 073°33'6 5.5
2014-Dec-17 16:33N 45°25' W 073°41'1110.5
2014-Dec-17 15:33N 45°20' W 073°54'5 5.1
2014-Dec-17 14:34N 45°15' W 073°58'1010.0
2014-Dec-17 13:33N 45°14' W 074°12'114 3.3
2014-Dec-16 03:16N 44°14' W 076°29'0 0.0
2014-Dec-16 02:33N 44°14' W 076°29'0 0.0
2014-Dec-16 01:33N 44°14' W 076°29'0 0.0
2014-Dec-16 00:34N 44°14' W 076°29'0 0.0
2014-Dec-15 23:34N 44°14' W 076°29'5 5.0
2014-Dec-15 22:34N 44°11' W 076°35'  
Track history (hours):
 
Tides and Currents Weather Stations Pressure Air Temp Water Temp Dewpoint Dewpoint Depression Visibility Wind Speed Wind Dir Waves Ship Positions

Laprairie

Last reported at 2014-Dec-18 23:33 UTC. Time now 2014-Dec-19 00:35 UTC.
Position N 45°29' W 073°31'.

Length 22 m; draft 10 m.

Type: Tug. MMSI: 316005239.

Date/timePositionNaut miles runAvg speedWind from/ knotsBaromVisibWave heightAir tempDewpointWater temp
2014-Dec-18 23:33N 45°29' W 073°31'0 0.0
2014-Dec-18 22:33N 45°29' W 073°31'0 0.0
2014-Dec-18 21:33N 45°29' W 073°31'0 0.0
2014-Dec-18 20:33N 45°29' W 073°31'0 0.0
2014-Dec-18 19:33N 45°29' W 073°31'0 0.0
2014-Dec-18 18:33N 45°29' W 073°31'0 0.0
2014-Dec-18 17:33N 45°29' W 073°31'0 0.0
2014-Dec-18 16:33N 45°29' W 073°31'0 0.0
2014-Dec-18 15:33N 45°29' W 073°31'0 0.0
2014-Dec-18 14:33N 45°29' W 073°31'0 0.0
2014-Dec-18 13:33N 45°29' W 073°31'0 0.0
2014-Dec-18 12:34N 45°29' W 073°31'0 0.0
2014-Dec-18 11:33N 45°29' W 073°31'0 0.0
2014-Dec-18 10:33N 45°29' W 073°31'0 0.0
2014-Dec-18 09:33N 45°29' W 073°31'0 0.0
2014-Dec-18 08:33N 45°29' W 073°31'0 0.0
2014-Dec-18 07:33N 45°29' W 073°31'0 0.0
2014-Dec-18 06:33N 45°29' W 073°31'0 0.0
2014-Dec-18 05:34N 45°29' W 073°31'0 0.0
2014-Dec-18 04:33N 45°29' W 073°31'0 0.0
2014-Dec-18 03:33N 45°29' W 073°31'0 0.0
2014-Dec-18 02:33N 45°29' W 073°31'0 0.0
2014-Dec-18 01:34N 45°29' W 073°31'0 0.0
2014-Dec-18 00:34N 45°29' W 073°31'0 0.0
2014-Dec-17 23:34N 45°29' W 073°31'0 0.0
2014-Dec-17 22:33N 45°29' W 073°31'0 0.0
2014-Dec-17 21:34N 45°29' W 073°31'0 0.0
2014-Dec-17 20:34N 45°29' W 073°31'0 0.0
2014-Dec-17 19:34N 45°29' W 073°31'0 0.1
2014-Dec-17 18:33N 45°29' W 073°31'5 5.3
2014-Dec-17 17:33N 45°24' W 073°33'6 5.5
2014-Dec-17 16:33N 45°25' W 073°41'1110.5
2014-Dec-17 15:33N 45°20' W 073°54'5 5.1
2014-Dec-17 14:34N 45°15' W 073°58'1010.0
2014-Dec-17 13:33N 45°14' W 074°12'114 3.3
2014-Dec-16 03:16N 44°14' W 076°29'0 0.0
2014-Dec-16 02:33N 44°14' W 076°29'0 0.0
2014-Dec-16 01:33N 44°14' W 076°29'0 0.0
2014-Dec-16 00:34N 44°14' W 076°29'0 0.0
2014-Dec-15 23:34N 44°14' W 076°29'5 5.0
2014-Dec-15 22:34N 44°11' W 076°35'  

Dump ship's entire track history